createdAt,value
2022-10-24T00:00:44.579Z,78.99
2022-10-24T00:03:15.219Z,78.53
2022-10-24T00:05:46.917Z,77.64
2022-10-24T00:08:17.518Z,76.96
2022-10-24T00:10:50.811Z,76.64
2022-10-24T00:13:22.360Z,76.79
2022-10-24T00:15:56.128Z,76.35
2022-10-24T00:18:26.268Z,75.46
2022-10-24T00:20:56.493Z,74.67
2022-10-24T00:23:26.636Z,74.87
2022-10-24T00:25:56.867Z,74.85
2022-10-24T00:28:27.068Z,75.03
2022-10-24T00:31:00.102Z,74.26
2022-10-24T00:33:30.932Z,74.35
2022-10-24T00:36:01.070Z,74.78
2022-10-24T00:38:31.436Z,75.16
2022-10-24T00:41:01.591Z,74.77
2022-10-24T00:43:31.732Z,74.44
2022-10-24T00:46:05.693Z,74.78
2022-10-24T00:48:40.178Z,74.70
2022-10-24T00:51:18.131Z,74.97
2022-10-24T00:53:52.841Z,74.44
2022-10-24T00:56:26.499Z,74.56
2022-10-24T00:58:58.350Z,74.38
2022-10-24T01:01:31.484Z,73.77
2022-10-24T01:04:01.718Z,73.89
2022-10-24T01:06:48.488Z,73.99
2022-10-24T01:09:34.552Z,73.82
2022-10-24T01:12:19.497Z,73.88
2022-10-24T01:15:01.296Z,74.22
2022-10-24T01:17:44.342Z,74.93
2022-10-24T01:20:57.623Z,75.62
2022-10-24T01:24:07.831Z,75.63
2022-10-24T01:27:11.302Z,75.94
2022-10-24T01:30:06.218Z,75.97
2022-10-24T01:32:47.522Z,75.72
2022-10-24T01:38:12.253Z,75.37
2022-10-24T01:40:51.437Z,75.51
2022-10-24T01:43:27.048Z,75.41
2022-10-24T01:46:05.215Z,75.59
2022-10-24T01:48:41.826Z,75.45
2022-10-24T01:51:16.108Z,74.78
2022-10-24T01:53:47.199Z,74.87
2022-10-24T01:56:17.618Z,74.46
2022-10-24T01:58:47.989Z,75.00
2022-10-24T02:01:26.279Z,75.22
2022-10-24T02:04:00.817Z,75.46
2022-10-24T02:06:35.575Z,75.43
2022-10-24T02:09:12.151Z,74.98
2022-10-24T02:11:44.096Z,75.04
2022-10-24T02:14:19.556Z,75.07
2022-10-24T02:16:53.134Z,75.70
2022-10-24T02:19:24.226Z,75.60
2022-10-24T02:22:04.534Z,75.82
2022-10-24T02:24:38.901Z,75.93
2022-10-24T02:27:15.155Z,76.23
2022-10-24T02:29:53.525Z,76.31
2022-10-24T02:32:32.158Z,76.53
2022-10-24T02:35:03.914Z,76.58
2022-10-24T02:37:35.666Z,77.10
2022-10-24T02:40:10.116Z,77.08
2022-10-24T02:42:42.027Z,77.01
2022-10-24T02:45:13.975Z,76.86
2022-10-24T02:47:48.974Z,76.76
2022-10-24T02:50:19.684Z,76.70
2022-10-24T02:52:50.055Z,76.58
2022-10-24T02:55:20.436Z,77.02
2022-10-24T02:57:50.847Z,76.93
2022-10-24T03:00:21.661Z,77.49
2022-10-24T03:02:54.380Z,78.02
2022-10-24T03:05:24.563Z,77.91
2022-10-24T03:07:54.891Z,78.34
2022-10-24T03:10:25.500Z,78.92
2022-10-24T03:12:55.709Z,79.42
2022-10-24T03:15:26.412Z,79.50
2022-10-24T03:17:58.948Z,79.45
2022-10-24T03:20:29.199Z,79.25
2022-10-24T03:22:59.313Z,79.64
2022-10-24T03:25:29.453Z,79.54
2022-10-24T03:27:59.647Z,79.75
2022-10-24T03:30:29.813Z,79.83
2022-10-24T03:33:02.673Z,80.89
2022-10-24T03:35:33.153Z,81.32
2022-10-24T03:38:03.306Z,81.75
2022-10-24T03:40:33.496Z,82.41
2022-10-24T03:43:03.858Z,82.70
2022-10-24T03:45:34.131Z,83.01
2022-10-24T03:48:07.765Z,83.54
2022-10-24T03:50:38.307Z,83.82
2022-10-24T03:53:08.766Z,83.73
2022-10-24T03:55:39.299Z,83.90
2022-10-24T03:58:09.437Z,84.22
2022-10-24T04:00:40.756Z,84.14
2022-10-24T04:03:13.774Z,84.14
2022-10-24T04:05:43.961Z,83.75
2022-10-24T04:08:14.114Z,84.12
2022-10-24T04:10:44.218Z,83.96
2022-10-24T04:13:14.673Z,84.07
2022-10-24T04:15:45.196Z,83.69
2022-10-24T04:18:18.068Z,83.86
2022-10-24T04:20:48.146Z,84.17
2022-10-24T04:23:18.392Z,84.38
2022-10-24T04:25:49.230Z,84.41
2022-10-24T04:28:19.084Z,84.65
2022-10-24T04:30:49.129Z,84.68
2022-10-24T04:33:21.818Z,84.67
2022-10-24T04:35:52.776Z,85.13
2022-10-24T04:38:24.865Z,84.97
2022-10-24T04:40:57.487Z,84.89
2022-10-24T04:43:28.700Z,84.47
2022-10-24T04:45:58.731Z,85.15
2022-10-24T04:48:32.119Z,84.92
2022-10-24T04:51:02.760Z,84.95
2022-10-24T04:53:33.405Z,85.00
2022-10-24T04:56:03.610Z,85.05
2022-10-24T04:58:33.788Z,84.74
2022-10-24T05:01:03.897Z,84.52
2022-10-24T05:03:36.666Z,84.99
2022-10-24T05:06:07.591Z,84.84
2022-10-24T05:08:37.719Z,84.86
2022-10-24T05:11:09.891Z,85.02
2022-10-24T05:13:40.294Z,85.00
2022-10-24T05:16:10.504Z,84.70
2022-10-24T05:18:43.229Z,84.50
2022-10-24T05:21:13.298Z,84.52
2022-10-24T05:23:43.788Z,84.62
2022-10-24T05:26:15.710Z,84.67
2022-10-24T05:28:50.095Z,84.25
2022-10-24T05:31:22.619Z,84.39
2022-10-24T05:33:55.455Z,84.40
2022-10-24T05:36:25.601Z,84.74
2022-10-24T05:38:55.733Z,84.93
2022-10-24T05:41:25.744Z,85.01
2022-10-24T05:43:55.748Z,85.67
2022-10-24T05:46:25.815Z,85.80
2022-10-24T05:48:58.635Z,85.98
2022-10-24T05:51:28.845Z,85.94
2022-10-24T05:53:59.022Z,86.24
2022-10-24T05:56:29.477Z,86.34
2022-10-24T05:59:00.813Z,86.56
2022-10-24T06:01:30.980Z,86.67
2022-10-24T06:04:03.708Z,86.67
2022-10-24T06:06:34.769Z,86.27
2022-10-24T06:09:05.025Z,87.02
2022-10-24T06:11:35.435Z,87.17
2022-10-24T06:14:06.211Z,87.11
2022-10-24T06:16:36.204Z,87.08
2022-10-24T06:19:08.961Z,86.34
2022-10-24T06:21:39.133Z,86.82
2022-10-24T06:24:09.927Z,86.69
2022-10-24T06:26:39.763Z,86.90
2022-10-24T06:29:09.838Z,87.03
2022-10-24T06:31:39.888Z,86.62
2022-10-24T06:34:12.536Z,86.29
2022-10-24T06:36:42.710Z,86.16
2022-10-24T06:39:12.797Z,85.88
2022-10-24T06:41:42.971Z,85.28
2022-10-24T06:44:18.158Z,84.55
2022-10-24T06:46:48.076Z,84.12
2022-10-24T06:49:20.896Z,84.45
2022-10-24T06:51:51.198Z,84.73
2022-10-24T06:54:22.445Z,84.00
2022-10-24T06:56:54.310Z,83.18
2022-10-24T06:59:24.445Z,82.81
2022-10-24T07:01:54.710Z,82.39
2022-10-24T07:04:28.565Z,81.99
2022-10-24T07:06:58.702Z,82.10
2022-10-24T07:09:29.099Z,81.72
2022-10-24T07:11:59.526Z,81.60
2022-10-24T07:14:29.688Z,81.11
2022-10-24T07:16:59.897Z,81.26
2022-10-24T07:19:35.217Z,81.04
2022-10-24T07:22:07.681Z,80.24
2022-10-24T07:24:37.890Z,79.90
2022-10-24T07:27:08.085Z,78.61
2022-10-24T07:29:38.227Z,77.66
2022-10-24T07:32:08.712Z,76.83
2022-10-24T07:34:42.612Z,76.38
2022-10-24T07:37:12.872Z,76.20
2022-10-24T07:39:43.263Z,76.13
2022-10-24T07:42:14.993Z,75.56
2022-10-24T07:44:45.401Z,75.99
2022-10-24T07:47:15.598Z,76.57
2022-10-24T07:49:48.354Z,76.84
2022-10-24T07:52:18.491Z,76.98
2022-10-24T07:54:48.598Z,77.36
2022-10-24T07:57:18.677Z,77.58
2022-10-24T07:59:48.925Z,77.20
2022-10-24T08:02:20.667Z,77.22
2022-10-24T08:04:53.380Z,76.76
2022-10-24T08:07:23.521Z,77.02
2022-10-24T08:09:53.776Z,76.92
2022-10-24T08:12:23.953Z,76.41
2022-10-24T08:14:55.777Z,76.55
2022-10-24T08:17:26.140Z,76.58
2022-10-24T08:19:59.103Z,76.09
2022-10-24T08:22:29.238Z,75.11
2022-10-24T08:24:59.297Z,76.40
2022-10-24T08:27:29.583Z,76.74
2022-10-24T08:29:59.634Z,76.00
2022-10-24T08:32:29.776Z,76.70
2022-10-24T08:35:02.660Z,75.79
2022-10-24T08:37:33.011Z,76.28
2022-10-24T08:40:03.116Z,76.14
2022-10-24T08:42:33.296Z,76.50
2022-10-24T08:45:03.759Z,76.28
2022-10-24T08:47:41.252Z,76.82
2022-10-24T08:50:25.432Z,77.01
2022-10-24T08:53:03.959Z,76.47
2022-10-24T08:55:49.399Z,76.86
2022-10-24T08:58:25.975Z,76.42
2022-10-24T09:00:59.735Z,75.92
2022-10-24T09:03:55.102Z,76.23
2022-10-24T09:06:32.734Z,75.85
2022-10-24T09:09:05.772Z,75.55
2022-10-24T09:11:51.282Z,74.91
2022-10-24T09:14:25.181Z,74.97
2022-10-24T09:17:00.267Z,74.42
2022-10-24T09:19:33.885Z,74.34
2022-10-24T09:22:07.227Z,74.26
2022-10-24T09:24:44.581Z,73.71
2022-10-24T09:29:51.689Z,74.37
2022-10-24T09:32:26.893Z,74.69
2022-10-24T09:34:58.230Z,74.53
2022-10-24T09:37:47.337Z,75.26
2022-10-24T09:40:23.833Z,75.97
2022-10-24T09:42:59.327Z,75.43
2022-10-24T09:45:41.855Z,75.69
2022-10-24T09:48:29.241Z,75.88
2022-10-24T09:51:02.289Z,75.71
2022-10-24T09:53:41.068Z,76.25
2022-10-24T09:56:16.070Z,77.53
2022-10-24T09:58:46.513Z,78.51
2022-10-24T10:01:24.313Z,78.70
2022-10-24T10:04:10.051Z,78.37
2022-10-24T10:06:47.696Z,78.79
2022-10-24T10:09:41.631Z,78.61
2022-10-24T10:12:29.470Z,78.14
2022-10-24T10:15:00.721Z,77.68
2022-10-24T10:17:32.790Z,77.04
2022-10-24T10:20:03.115Z,76.01
2022-10-24T10:22:35.521Z,73.43
2022-10-24T10:25:09.195Z,72.36
2022-10-24T10:27:42.086Z,71.07
2022-10-24T10:30:23.986Z,69.74
2022-10-24T10:33:10.651Z,68.93
2022-10-24T10:35:48.213Z,67.07
2022-10-24T10:38:47.410Z,66.26
2022-10-24T10:41:37.294Z,66.43
2022-10-24T10:44:48.355Z,65.70
2022-10-24T10:47:34.905Z,65.08
2022-10-24T10:50:21.931Z,64.82
2022-10-24T10:52:53.960Z,63.43
2022-10-24T10:55:38.957Z,63.67
2022-10-24T10:58:27.044Z,62.34
2022-10-24T11:01:10.816Z,62.19
2022-10-24T11:03:48.870Z,61.68
2022-10-24T11:06:35.810Z,60.18
2022-10-24T11:09:36.864Z,56.41
2022-10-24T11:12:14.487Z,54.71
2022-10-24T11:14:53.735Z,54.42
2022-10-24T11:17:29.430Z,53.82
2022-10-24T11:20:16.286Z,54.16
2022-10-24T11:22:52.694Z,54.79
2022-10-24T11:25:31.217Z,54.71
2022-10-24T11:28:11.031Z,55.33
2022-10-24T11:30:54.688Z,55.53
2022-10-24T11:33:29.889Z,55.71
2022-10-24T11:36:11.746Z,55.91
2022-10-24T11:38:49.727Z,55.56
2022-10-24T11:41:34.192Z,55.43
2022-10-24T11:44:14.882Z,55.42
2022-10-24T11:46:56.300Z,55.56
2022-10-24T11:49:33.384Z,55.16
2022-10-24T11:52:15.799Z,55.39
2022-10-24T11:54:53.750Z,55.72
2022-10-24T11:57:27.368Z,55.88
2022-10-24T11:59:59.153Z,56.73
2022-10-24T12:03:18.933Z,56.29
2022-10-24T12:06:19.946Z,56.67
2022-10-24T12:09:30.794Z,56.82
2022-10-24T12:12:18.443Z,55.95
2022-10-24T12:15:13.888Z,56.31
2022-10-24T12:18:07.226Z,55.97
2022-10-24T12:20:39.173Z,56.20
2022-10-24T12:23:10.051Z,56.35
2022-10-24T12:25:45.635Z,56.09
2022-10-24T12:28:26.246Z,56.42
2022-10-24T12:31:14.930Z,56.05
2022-10-24T12:33:49.418Z,56.03
2022-10-24T12:36:54.391Z,56.22
2022-10-24T12:39:32.875Z,55.52
2022-10-24T12:42:03.401Z,55.20
2022-10-24T12:44:45.880Z,55.08
2022-10-24T12:47:39.280Z,54.08
2022-10-24T12:50:54.390Z,54.13
2022-10-24T12:53:42.761Z,54.44
2022-10-24T12:56:22.647Z,54.24
2022-10-24T12:59:05.319Z,54.16
2022-10-24T13:01:38.470Z,54.77
2022-10-24T13:04:55.906Z,55.61
2022-10-24T13:07:48.398Z,55.40
2022-10-24T13:10:46.631Z,55.51
2022-10-24T13:14:02.671Z,56.07
2022-10-24T13:16:42.968Z,55.60
2022-10-24T13:19:19.398Z,55.62
2022-10-24T13:21:53.043Z,55.83
2022-10-24T13:24:37.000Z,55.86
2022-10-24T13:27:34.872Z,55.28
2022-10-24T13:30:28.470Z,54.88
2022-10-24T13:33:44.412Z,54.23
2022-10-24T13:36:27.890Z,54.06
2022-10-24T13:39:02.772Z,54.62
2022-10-24T13:41:37.585Z,53.89
2022-10-24T13:44:22.009Z,53.03
2022-10-24T13:46:56.115Z,53.36
2022-10-24T13:49:33.511Z,53.34
2022-10-24T13:52:10.913Z,53.17
2022-10-24T13:54:42.083Z,53.94
2022-10-24T13:57:31.393Z,54.11
2022-10-24T14:00:07.218Z,53.61
2022-10-24T14:02:45.921Z,53.42
2022-10-24T14:05:29.140Z,54.17
2022-10-24T14:08:00.119Z,54.64
2022-10-24T14:10:30.553Z,54.48
2022-10-24T14:13:01.875Z,54.63
2022-10-24T14:15:36.211Z,55.04
2022-10-24T14:18:14.756Z,54.89
2022-10-24T14:20:46.593Z,55.57
2022-10-24T14:23:28.229Z,55.76
2022-10-24T14:26:02.220Z,56.57
2022-10-24T14:28:34.688Z,56.68
2022-10-24T14:31:10.586Z,57.36
2022-10-24T14:33:48.065Z,58.08
2022-10-24T14:36:20.614Z,58.38
2022-10-24T14:38:51.877Z,59.13
2022-10-24T14:41:30.211Z,59.47
2022-10-24T14:44:01.656Z,60.12
2022-10-24T14:46:40.535Z,60.49
2022-10-24T14:49:24.988Z,60.98
2022-10-24T14:51:58.152Z,61.56
2022-10-24T14:54:33.803Z,62.49
2022-10-24T14:57:10.305Z,62.96
2022-10-24T14:59:47.736Z,63.93
2022-10-24T15:02:26.228Z,64.16
2022-10-24T15:05:15.622Z,64.93
2022-10-24T15:08:02.976Z,66.68
2022-10-24T15:10:40.543Z,67.76
2022-10-24T15:13:16.102Z,68.81
2022-10-24T15:15:55.218Z,69.32
2022-10-24T15:18:30.328Z,70.16
2022-10-24T15:21:07.286Z,70.95
2022-10-24T15:23:40.894Z,70.74
2022-10-24T15:26:13.892Z,71.28
2022-10-24T15:28:50.946Z,71.41
2022-10-24T15:31:23.190Z,71.92
2022-10-24T15:33:56.567Z,73.00
2022-10-24T15:36:31.403Z,73.63
2022-10-24T15:39:04.719Z,73.66
2022-10-24T15:41:35.338Z,74.03
2022-10-24T15:44:05.565Z,74.71
2022-10-24T15:46:35.766Z,75.71
2022-10-24T15:49:08.512Z,76.72
2022-10-24T15:51:45.884Z,76.50
2022-10-24T15:54:22.217Z,76.75
2022-10-24T15:56:53.286Z,78.08
2022-10-24T15:59:26.801Z,79.03
2022-10-24T16:02:00.354Z,80.43
2022-10-24T16:04:34.619Z,81.70
2022-10-24T16:07:04.945Z,81.54
2022-10-24T16:09:35.617Z,80.99
2022-10-24T16:12:06.143Z,81.45
2022-10-24T16:14:36.905Z,81.11
2022-10-24T16:17:07.043Z,81.54
2022-10-24T16:19:39.678Z,81.88
2022-10-24T16:22:09.825Z,82.20
2022-10-24T16:24:39.891Z,82.69
2022-10-24T16:27:10.010Z,82.73
2022-10-24T16:29:40.155Z,83.02
2022-10-24T16:32:10.334Z,83.58
2022-10-24T16:34:45.104Z,83.68
2022-10-24T16:37:15.289Z,83.96
2022-10-24T16:39:45.435Z,84.17
2022-10-24T16:42:15.506Z,85.27
2022-10-24T16:44:45.529Z,85.81
2022-10-24T16:47:16.322Z,86.25
2022-10-24T16:49:49.214Z,87.02
2022-10-24T16:52:19.356Z,87.12
2022-10-24T16:54:49.479Z,87.50
2022-10-24T16:57:19.952Z,88.24
2022-10-24T16:59:50.467Z,88.75
2022-10-24T17:02:23.542Z,89.12
2022-10-24T17:04:56.498Z,89.03
2022-10-24T17:07:26.739Z,89.15
2022-10-24T17:09:56.906Z,89.86
2022-10-24T17:12:30.668Z,90.54
2022-10-24T17:15:00.934Z,91.23
2022-10-24T17:17:31.118Z,91.25
2022-10-24T17:20:04.499Z,91.02
2022-10-24T17:22:35.233Z,92.13
2022-10-24T17:25:05.865Z,93.69
2022-10-24T17:27:36.376Z,93.79
2022-10-24T17:30:08.295Z,93.64
2022-10-24T17:32:38.710Z,93.87
2022-10-24T17:35:16.391Z,93.61
2022-10-24T17:37:57.406Z,93.94
2022-10-24T17:40:34.037Z,94.20
2022-10-24T17:43:06.490Z,94.40
2022-10-24T17:45:37.413Z,94.81
2022-10-24T17:48:07.831Z,95.21
2022-10-24T17:50:40.964Z,96.37
2022-10-24T17:53:13.339Z,97.08
2022-10-24T17:55:47.834Z,98.25
2022-10-24T17:58:19.523Z,98.72
2022-10-24T18:00:49.746Z,99.90
2022-10-24T18:03:20.286Z,100.00
2022-10-24T18:05:53.053Z,100.00
2022-10-24T18:08:23.166Z,100.00
2022-10-24T18:10:53.245Z,100.00
2022-10-24T18:13:23.532Z,100.00
2022-10-24T18:15:53.707Z,100.00
2022-10-24T18:18:24.430Z,100.00
2022-10-24T18:21:08.740Z,100.00
2022-10-24T18:23:39.420Z,100.00
2022-10-24T18:26:11.015Z,100.00
2022-10-24T18:28:41.728Z,100.00
2022-10-24T18:31:15.021Z,100.00
2022-10-24T18:33:45.818Z,100.00
2022-10-24T18:36:21.984Z,100.00
2022-10-24T18:38:52.123Z,100.00
2022-10-24T18:41:38.084Z,100.00
2022-10-24T18:44:28.257Z,100.00
2022-10-24T18:47:01.588Z,100.00
2022-10-24T18:49:33.513Z,100.00
2022-10-24T18:52:17.384Z,100.00
2022-10-24T18:55:02.176Z,100.00
2022-10-24T18:57:36.658Z,100.00
2022-10-24T19:00:09.925Z,100.00
2022-10-24T19:02:48.125Z,100.00
2022-10-24T19:05:24.094Z,100.00
2022-10-24T19:07:57.218Z,100.00
2022-10-24T19:10:30.403Z,100.00
2022-10-24T19:13:00.780Z,100.00
2022-10-24T19:15:32.092Z,100.00
2022-10-24T19:18:02.197Z,100.00
2022-10-24T19:20:32.469Z,100.00
2022-10-24T19:23:06.344Z,100.00
2022-10-24T19:25:36.777Z,100.00
2022-10-24T19:28:07.104Z,100.00
2022-10-24T19:30:38.139Z,100.00
2022-10-24T19:33:08.206Z,100.00
2022-10-24T19:35:39.209Z,100.00
2022-10-24T19:38:11.630Z,100.00
2022-10-24T19:40:49.708Z,100.00
2022-10-24T19:43:19.904Z,100.00
2022-10-24T19:46:07.221Z,100.00
2022-10-24T19:48:42.749Z,100.00
2022-10-24T19:51:15.482Z,100.00
2022-10-24T19:53:49.720Z,100.00
2022-10-24T19:56:25.101Z,100.00
2022-10-24T19:58:56.908Z,100.00
2022-10-24T20:01:29.863Z,100.00
2022-10-24T20:04:00.278Z,100.00
2022-10-24T20:06:30.551Z,100.00
2022-10-24T20:09:03.312Z,100.00
2022-10-24T20:11:33.626Z,100.00
2022-10-24T20:14:03.904Z,100.00
2022-10-24T20:16:34.599Z,100.00
2022-10-24T20:19:06.508Z,100.00
2022-10-24T20:21:37.709Z,100.00
2022-10-24T20:24:11.482Z,100.00
2022-10-24T20:26:41.608Z,100.00
2022-10-24T20:29:14.958Z,100.00
2022-10-24T20:31:48.735Z,100.00
2022-10-24T20:34:18.864Z,100.00
2022-10-24T20:36:49.922Z,100.00
2022-10-24T20:39:23.083Z,100.00
2022-10-24T20:41:54.185Z,100.00
2022-10-24T20:44:24.818Z,100.00
2022-10-24T20:46:56.766Z,100.00
2022-10-24T20:49:26.918Z,99.90
2022-10-24T20:51:57.099Z,99.81
2022-10-24T20:54:29.943Z,99.79
2022-10-24T20:57:00.106Z,99.76
2022-10-24T20:59:30.400Z,99.99
2022-10-24T21:02:00.597Z,99.80
2022-10-24T21:04:30.832Z,99.16
2022-10-24T21:07:00.932Z,99.29
2022-10-24T21:09:34.434Z,99.21
2022-10-24T21:12:04.521Z,98.62
2022-10-24T21:14:34.604Z,99.04
2022-10-24T21:17:04.745Z,98.78
2022-10-24T21:19:34.760Z,99.09
2022-10-24T21:22:04.862Z,98.92
2022-10-24T21:24:37.541Z,98.82
2022-10-24T21:27:07.806Z,98.36
2022-10-24T21:29:37.944Z,98.57
2022-10-24T21:32:08.383Z,98.05
2022-10-24T21:34:38.498Z,97.83
2022-10-24T21:37:08.842Z,98.56
2022-10-24T21:39:41.599Z,98.32
2022-10-24T21:42:11.712Z,98.55
2022-10-24T21:44:41.927Z,99.09
2022-10-24T21:47:12.006Z,98.79
2022-10-24T21:49:42.017Z,98.48
2022-10-24T21:52:12.113Z,98.58
2022-10-24T21:54:44.774Z,98.49
2022-10-24T21:57:14.946Z,97.91
2022-10-24T21:59:45.026Z,98.17
2022-10-24T22:02:15.332Z,97.98
2022-10-24T22:04:45.541Z,97.96
2022-10-24T22:07:15.672Z,98.82
2022-10-24T22:09:48.368Z,98.05
2022-10-24T22:12:18.506Z,97.81
2022-10-24T22:14:48.520Z,97.72
2022-10-24T22:17:18.650Z,98.69
2022-10-24T22:19:48.705Z,98.89
2022-10-24T22:22:19.044Z,98.81
2022-10-24T22:24:51.740Z,99.15
2022-10-24T22:27:21.940Z,98.87
2022-10-24T22:29:51.988Z,98.95
2022-10-24T22:32:23.059Z,98.56
2022-10-24T22:34:54.355Z,98.46
2022-10-24T22:37:31.011Z,98.96
2022-10-24T22:40:04.756Z,99.56
2022-10-24T22:42:35.397Z,99.90
2022-10-24T22:45:06.708Z,100.00
2022-10-24T22:48:01.153Z,100.00
2022-10-24T22:50:52.678Z,100.00
2022-10-24T22:53:26.356Z,100.00
2022-10-24T22:56:19.952Z,100.00
2022-10-24T22:58:50.793Z,100.00
2022-10-24T23:01:29.620Z,100.00
2022-10-24T23:04:14.303Z,100.00
2022-10-24T23:06:53.175Z,100.00
2022-10-24T23:09:23.310Z,100.00
2022-10-24T23:11:57.696Z,100.00
2022-10-24T23:14:28.855Z,100.00
2022-10-24T23:17:02.068Z,100.00
2022-10-24T23:19:34.957Z,100.00
2022-10-24T23:22:10.910Z,100.00
2022-10-24T23:24:42.042Z,100.00
2022-10-24T23:27:39.303Z,100.00
2022-10-24T23:30:20.094Z,100.00
2022-10-24T23:32:53.551Z,100.00
2022-10-24T23:35:25.725Z,100.00
2022-10-24T23:37:56.921Z,100.00
2022-10-24T23:40:35.556Z,100.00
2022-10-24T23:43:11.520Z,100.00
2022-10-24T23:45:53.449Z,100.00
2022-10-24T23:48:38.201Z,100.00
2022-10-24T23:51:14.912Z,100.00
2022-10-24T23:53:53.092Z,100.00
2022-10-24T23:56:26.356Z,100.00
2022-10-24T23:58:59.608Z,100.00
